< < Back
Terminal Aerodrome Forecast


Current Version              Previous Versions:   1  2  3  4  5  6  7  8  9  

Terminal Aerodrome Forecast

266
FTUS42 KMLB 161700
TAFMCO
TAF
KMCO 161735Z 1618/1718 28012KT P6SM VCTS SCT040CB SCT150 BKN250
      TEMPO 1618/1621 3SM TSRA BKN035CB OVC050
     FM170000 26004KT P6SM SCT080 OVC150
     FM171400 25010KT P6SM FEW020 SCT120 SCT250=

Latest METAR

626
SAUS70 KWBC 161700 RRA
MTRMCO
METAR KMCO 161653Z 27012KT 10SM SCT040 SCT150 BKN250 32/21 A3005 RMK AO2
SLP175 CB DSNT W T03170206


USA.gov is the U.S. government's official web portal to all federal, state and local government web resources and services.